Terminal Aerodrome Forecast
Issued by NWS Jacksonville, FL

Home | Current Version | Previous Version | Text Only | Print | Product List | Glossary On
Versions: 1 2 3 4 5 6 7 8 9 10 11 12 13 14 15 16 17 18 19 20 21 22 23 24 25 26
000
FTUS42 KJAX 072324
TAFSSI
TAF
KSSI 072324Z 0800/0824 VRB02KT P6SM SCT030
      TEMPO 0800/0804 BKN030
     FM080400 VRB02KT P6SM SCT005 BKN020
     FM080800 29003KT 3SM BR BKN005 OVC020
     FM081400 28006KT P6SM FEW020 SCT250=

USA.gov is the U.S. government's official web portal to all federal, state and local government web resources and services.